^^
MeteoGriva-Weather Station Historical Data
Daily Summary for June 25, 2020 Units:  Metric    English   Both
Daily Weekly Monthly Yearly Custom
  High: Low: Average:
Temperature: 11.4 °C 5 °C 7.7 °C
Dew Point: 6.8 °C 1.7 °C 4.6 °C
Humidity: 93.9% 69.7% 81%
Wind Speed: 3km/h 0km/h 0.1km/h
Wind Gust: 16.3km/h - -
Wind- - SE
Pressure: 1026.1 hPa 1022.0 hPa -
Precipitation: 0.0 mm    
Historical Graphs
 
 
Tabular Data for June 25, 2020
Time Temperature Dew Point Pressure Wind Wind Speed Wind Gust Humidity Rainfall Rate (Hourly) solar
00:04 8.1 °C 4.2 °C 1025.7 hPa Calm     76.8% 0.0 mm 0 W/m2
00:09 8.1 °C 4.3 °C 1025.4 hPa Calm     77% 0.0 mm 0 W/m2
00:14 8.1 °C 4.3 °C 1025.4 hPa NNW 0.4 km/h 7.9 km/h 77% 0.0 mm 0 W/m2
00:19 8.1 °C 4.3 °C 1025.4 hPa NE 0.2 km/h 7.9 km/h 76.9% 0.0 mm 0 W/m2
00:24 8.1 °C 4.3 °C 1025.4 hPa Calm     77% 0.0 mm 0 W/m2
00:29 8 °C 4.2 °C 1025.4 hPa Calm     77% 0.0 mm 0 W/m2
00:34 8 °C 4.3 °C 1025.7 hPa Calm     77.2% 0.0 mm 0 W/m2
00:39 8 °C 4.3 °C 1025.4 hPa Calm     77.7% 0.0 mm 0 W/m2
00:44 8 °C 4.4 °C 1025.4 hPa Calm     78% 0.0 mm 0 W/m2
00:49 8 °C 4.4 °C 1025.4 hPa Calm     78% 0.0 mm 0 W/m2
00:54 8 °C 4.4 °C 1025.4 hPa Calm     78% 0.0 mm 0 W/m2
00:59 8 °C 4.4 °C 1025.1 hPa Calm     78% 0.0 mm 0 W/m2
01:04 8 °C 4.5 °C 1025.1 hPa Calm     78.4% 0.0 mm 0 W/m2
01:09 8.1 °C 4.7 °C 1025.1 hPa Calm     79% 0.0 mm 0 W/m2
01:14 8.1 °C 4.9 °C 1025.1 hPa Calm     80% 0.0 mm 0 W/m2
01:19 8 °C 4.8 °C 1025.1 hPa Calm     79.9% 0.0 mm 0 W/m2
01:24 8 °C 4.6 °C 1025.1 hPa Calm     79% 0.0 mm 0 W/m2
01:29 8 °C 4.8 °C 1025.1 hPa Calm     79.9% 0.0 mm 0 W/m2
01:34 8 °C 4.8 °C 1025.1 hPa Calm     80.4% 0.0 mm 0 W/m2
01:39 8 °C 4.8 °C 1024.7 hPa Calm     80.3% 0.0 mm 0 W/m2
01:44 7.9 °C 4.7 °C 1025.1 hPa Calm     80% 0.0 mm 0 W/m2
01:49 7.8 °C 4.6 °C 1025.1 hPa Calm     80% 0.0 mm 0 W/m2
01:54 7.8 °C 4.6 °C 1025.1 hPa Calm     80% 0.0 mm 0 W/m2
01:59 7.8 °C 4.6 °C 1024.7 hPa NNW 0.3 km/h 4 km/h 80% 0.0 mm 0 W/m2
02:04 7.8 °C 4.6 °C 1024.7 hPa Calm     80% 0.0 mm 0 W/m2
02:09 7.8 °C 4.6 °C 1024.7 hPa Calm     80% 0.0 mm 0 W/m2
02:14 7.7 °C 4.5 °C 1024.7 hPa Calm     80.1% 0.0 mm 0 W/m2
02:19 7.7 °C 4.6 °C 1024.7 hPa Calm     81% 0.0 mm 0 W/m2
02:24 7.7 °C 4.8 °C 1025.1 hPa Calm     82% 0.0 mm 0 W/m2
02:29 7.4 °C 4.5 °C 1024.7 hPa Calm     82% 0.0 mm 0 W/m2
02:34 7.4 °C 4.5 °C 1024.7 hPa Calm     82% 0.0 mm 0 W/m2
02:39 7.4 °C 4.6 °C 1024.7 hPa Calm     82.7% 0.0 mm 0 W/m2
02:44 7.3 °C 4.4 °C 1024.7 hPa Calm     82.1% 0.0 mm 0 W/m2
02:49 7.3 °C 4.6 °C 1024.7 hPa Calm     82.9% 0.0 mm 0 W/m2
02:54 7.2 °C 4.5 °C 1024.7 hPa Calm     83% 0.0 mm 0 W/m2
02:59 7.2 °C 4.6 °C 1024.7 hPa Calm     83.3% 0.0 mm 0 W/m2
03:04 7.2 °C 4.7 °C 1024.4 hPa Calm     84% 0.0 mm 0 W/m2
03:09 7 °C 4.5 °C 1024.4 hPa Calm     84% 0.0 mm 0 W/m2
03:14 6.9 °C 4.5 °C 1024.4 hPa Calm     84.6% 0.0 mm 0 W/m2
03:19 6.9 °C 4.4 °C 1024.4 hPa Calm     84.2% 0.0 mm 0 W/m2
03:24 6.9 °C 4.4 °C 1024.4 hPa Calm     84% 0.0 mm 0 W/m2
03:29 6.8 °C 4.4 °C 1024.4 hPa Calm     84.3% 0.0 mm 0 W/m2
03:34 6.7 °C 4.4 °C 1024.4 hPa Calm     85.1% 0.0 mm 0 W/m2
03:39 6.7 °C 4.5 °C 1024.4 hPa Calm     86% 0.0 mm 0 W/m2
03:44 6.7 °C 4.4 °C 1024.4 hPa Calm     85.4% 0.0 mm 0 W/m2
03:49 6.5 °C 4.2 °C 1024.4 hPa Calm     84.7% 0.0 mm 0 W/m2
03:54 6.5 °C 4 °C 1024.4 hPa Calm     84% 0.0 mm 0 W/m2
03:59 6.5 °C 4.1 °C 1024.4 hPa Calm     84.5% 0.0 mm 0 W/m2
04:04 6.5 °C 4.3 °C 1024.4 hPa Calm     85.9% 0.0 mm 0 W/m2
04:09 6.2 °C 4.2 °C 1024.4 hPa Calm     87% 0.0 mm 0 W/m2
04:14 6.1 °C 4.3 °C 1024.4 hPa Calm     87.8% 0.0 mm 0 W/m2
04:19 6.1 °C 4.3 °C 1024.4 hPa Calm     88% 0.0 mm 0 W/m2
04:24 6.1 °C 4.2 °C 1024.4 hPa Calm     87.8% 0.0 mm 0 W/m2
04:29 6.2 °C 4 °C 1024.0 hPa Calm     85.9% 0.0 mm 0 W/m2
04:34 6.2 °C 4.2 °C 1024.0 hPa Calm     87% 0.0 mm 0 W/m2
04:39 6.1 °C 4.3 °C 1024.0 hPa Calm     87.9% 0.0 mm 0 W/m2
04:44 6.1 °C 4.3 °C 1024.0 hPa Calm     88.2% 0.0 mm 0 W/m2
04:49 5.6 °C 4 °C 1024.0 hPa Calm     89.8% 0.0 mm 0 W/m2
04:54 5.4 °C 3.8 °C 1024.0 hPa Calm     89.5% 0.0 mm 0 W/m2
04:59 5.4 °C 3.7 °C 1024.0 hPa Calm     88.7% 0.0 mm 0 W/m2
05:04 5.5 °C 4 °C 1024.0 hPa Calm     90.6% 0.0 mm 0 W/m2
05:09 5.2 °C 4.1 °C 1024.0 hPa Calm     92.3% 0.0 mm 0 W/m2
05:14 5.2 °C 3.9 °C 1024.0 hPa Calm     91.2% 0.0 mm 0 W/m2
05:19 5.3 °C 3.8 °C 1024.0 hPa Calm     90% 0.0 mm 0 W/m2
05:24 5.3 °C 3.8 °C 1024.0 hPa Calm     90% 0.0 mm 0 W/m2
05:29 5.5 °C 3.9 °C 1024.0 hPa Calm     89.4% 0.0 mm 0 W/m2
05:34 5.5 °C 3.8 °C 1024.0 hPa Calm     89% 0.0 mm 0 W/m2
05:39 5.5 °C 4 °C 1024.0 hPa Calm     90% 0.0 mm 0 W/m2
05:44 5.5 °C 4 °C 1024.0 hPa Calm     90% 0.0 mm 0 W/m2
05:49 5.3 °C 4 °C 1024.0 hPa Calm     91.2% 0.0 mm 0 W/m2
05:54 5.2 °C 4 °C 1024.0 hPa Calm     92% 0.0 mm 0 W/m2
05:59 5.2 °C 4 °C 1024.0 hPa Calm     92.2% 0.0 mm 0 W/m2
06:04 5.2 °C 4.1 °C 1024.0 hPa Calm     92.6% 0.0 mm 0 W/m2
06:09 5.1 °C 4.1 °C 1024.0 hPa Calm     93% 0.0 mm 0 W/m2
06:14 5 °C 4 °C 1024.0 hPa Calm     93.1% 0.0 mm 0 W/m2
06:19 5 °C 4.1 °C 1024.0 hPa Calm     93.6% 0.0 mm 0 W/m2
06:24 5 °C 4.1 °C 1024.0 hPa Calm     93.7% 0.0 mm 0 W/m2
06:29 5.4 °C 4.2 °C 1024.0 hPa Calm     92.1% 0.0 mm 0 W/m2
06:34 5.6 °C 4.4 °C 1024.4 hPa Calm     92% 0.0 mm 0 W/m2
06:39 5.6 °C 4.6 °C 1024.4 hPa Calm     93% 0.0 mm 0 W/m2
06:44 5.5 °C 4.6 °C 1024.4 hPa Calm     93.9% 0.0 mm 0 W/m2
06:49 5.5 °C 4.6 °C 1024.4 hPa Calm     93.8% 0.0 mm 0 W/m2
06:54 5.5 °C 4.5 °C 1024.4 hPa Calm     93% 0.0 mm 0 W/m2
06:59 5.5 °C 4.4 °C 1024.4 hPa Calm     92.3% 0.0 mm 0 W/m2
07:04 5.5 °C 4.3 °C 1024.4 hPa Calm     92.2% 0.0 mm 0 W/m2
07:09 5.5 °C 4.5 °C 1024.7 hPa Calm     92.9% 0.0 mm 0 W/m2
07:14 5.5 °C 4.4 °C 1024.7 hPa Calm     92.3% 0.0 mm 0 W/m2
07:19 5.5 °C 4.4 °C 1024.7 hPa Calm     92.5% 0.0 mm 0 W/m2
07:24 5.6 °C 4.6 °C 1024.7 hPa Calm     93% 0.0 mm 0 W/m2
07:29 5.7 °C 4.7 °C 1024.4 hPa Calm     93.1% 0.0 mm 0 W/m2
07:34 5.7 °C 4.5 °C 1024.7 hPa Calm     92.2% 0.0 mm 2 W/m2
07:39 5.7 °C 4.7 °C 1024.7 hPa Calm     92.9% 0.0 mm 4 W/m2
07:44 5.7 °C 4.5 °C 1024.7 hPa Calm     92% 0.0 mm 6 W/m2
07:49 5.8 °C 4.7 °C 1025.1 hPa Calm     92% 0.0 mm 10 W/m2
07:54 5.9 °C 4.7 °C 1025.1 hPa Calm     92% 0.0 mm 14 W/m2
07:59 5.9 °C 4.7 °C 1025.1 hPa Calm     91.7% 0.0 mm 19 W/m2
08:04 6 °C 4.5 °C 1025.1 hPa SSW 1.3 km/h 7.9 km/h 90.4% 0.0 mm 23 W/m2
08:09 6.5 °C 4.8 °C 1025.1 hPa South 0.7 km/h 4 km/h 89.2% 0.0 mm 28 W/m2
08:14 6.8 °C 5.1 °C 1025.4 hPa Calm   4 km/h 88.8% 0.0 mm 33 W/m2
08:19 6.8 °C 5.1 °C 1025.4 hPa SSW 1 km/h 7.9 km/h 89% 0.0 mm 38 W/m2
08:24 6.8 °C 5.1 °C 1025.4 hPa South 0.8 km/h 7.9 km/h 88.6% 0.0 mm 43 W/m2
08:29 6.9 °C 5 °C 1025.4 hPa SSE 0.6 km/h 7.9 km/h 87.4% 0.0 mm 48 W/m2
08:34 7.3 °C 5.1 °C 1025.4 hPa Calm     86.1% 0.0 mm 52 W/m2
08:39 7.3 °C 5 °C 1025.4 hPa Calm     85.4% 0.0 mm 56 W/m2
08:44 7.5 °C 5 °C 1025.7 hPa Calm     84.5% 0.0 mm 60 W/m2
08:49 8.1 °C 5.4 °C 1025.7 hPa Calm     83.2% 0.0 mm 63 W/m2
08:54 8.6 °C 5.7 °C 1025.7 hPa Calm     82.2% 0.0 mm 66 W/m2
08:59 8.6 °C 5.7 °C 1025.7 hPa SE 0.3 km/h 4 km/h 82% 0.0 mm 69 W/m2
09:04 8.6 °C 5.8 °C 1025.7 hPa Calm   4 km/h 82.3% 0.0 mm 72 W/m2
09:09 8.6 °C 5.8 °C 1025.7 hPa Calm   4 km/h 82.3% 0.0 mm 75 W/m2
09:14 8.6 °C 5.6 °C 1025.7 hPa South 0.1 km/h 4 km/h 81.6% 0.0 mm 78 W/m2
09:19 8.6 °C 5.6 °C 1026.1 hPa SE 0.2 km/h 7.9 km/h 81.6% 0.0 mm 79 W/m2
09:24 8.7 °C 5.4 °C 1025.7 hPa Calm   4 km/h 80.3% 0.0 mm 81 W/m2
09:29 8.8 °C 5.5 °C 1025.7 hPa Calm   4 km/h 79.7% 0.0 mm 82 W/m2
09:34 9.3 °C 5.8 °C 1026.1 hPa Calm   4 km/h 79% 0.0 mm 84 W/m2
09:39 9.3 °C 5.8 °C 1026.1 hPa Calm     78.7% 0.0 mm 85 W/m2
09:44 9.3 °C 5.6 °C 1026.1 hPa Calm     77.5% 0.0 mm 86 W/m2
09:49 9.5 °C 5.7 °C 1026.1 hPa Calm     76.6% 0.0 mm 88 W/m2
09:54 10 °C 6.3 °C 1026.1 hPa Calm     77.9% 0.0 mm 89 W/m2
09:59 9.8 °C 6.5 °C 1026.1 hPa Calm     80% 0.0 mm 89 W/m2
10:04 9.5 °C 6.8 °C 1026.1 hPa Calm     82.8% 0.0 mm 89 W/m2
10:09 9 °C 6.4 °C 1026.1 hPa NE 0.3 km/h 4 km/h 83.9% 0.0 mm 90 W/m2
10:19 7.8 °C 4.6 °C 1026.1 hPa NE 0.2 km/h 4 km/h 80% 0.0 mm 91 W/m2
10:24 7.8 °C 4.7 °C 1025.7 hPa Calm   4 km/h 80.3% 0.0 mm 92 W/m2
10:29 8.1 °C 4.6 °C 1026.1 hPa Calm   4 km/h 78.6% 0.0 mm 94 W/m2
10:34 8.8 °C 4.8 °C 1025.7 hPa Calm     76% 0.0 mm 96 W/m2
10:39 9 °C 4.9 °C 1025.7 hPa Calm     75.4% 0.0 mm 97 W/m2
10:44 9 °C 5.3 °C 1025.7 hPa Calm   4 km/h 77.7% 0.0 mm 100 W/m2
10:49 8.9 °C 5.2 °C 1025.7 hPa Calm   4 km/h 77.6% 0.0 mm 103 W/m2
10:54 9 °C 5.2 °C 1025.7 hPa ESE 2.1 km/h 7.9 km/h 76.8% 0.0 mm 106 W/m2
10:59 9 °C 5 °C 1025.7 hPa ESE 1.7 km/h 16.3 km/h 75.9% 0.0 mm 108 W/m2
11:04 9.2 °C 4.9 °C 1025.7 hPa Calm   4 km/h 74.4% 0.0 mm 113 W/m2
11:09 9.4 °C 4.8 °C 1025.7 hPa ENE 0.2 km/h 7.9 km/h 73.1% 0.0 mm 116 W/m2
11:14 10.2 °C 5.7 °C 1025.4 hPa SE 1.5 km/h 12.2 km/h 73.1% 0.0 mm 119 W/m2
11:19 10.1 °C 5.8 °C 1025.4 hPa Calm   4 km/h 74.6% 0.0 mm 122 W/m2
11:24 10 °C 5.7 °C 1025.4 hPa Calm     74.3% 0.0 mm 125 W/m2
11:29 10.1 °C 5.2 °C 1025.4 hPa Calm   4 km/h 71.7% 0.0 mm 113 W/m2
11:34 10.4 °C 5.6 °C 1025.1 hPa Calm   4 km/h 71.9% 0.0 mm 97 W/m2
11:39 10.4 °C 5.5 °C 1025.1 hPa SSE 0.7 km/h 7.9 km/h 71.5% 0.0 mm 96 W/m2
11:44 10.5 °C 5.5 °C 1025.1 hPa SE 3 km/h 12.2 km/h 70.9% 0.0 mm 96 W/m2
11:48 10.5 °C 5.6 °C 1025.1 hPa SE 0.2 km/h 7.9 km/h 71.3% 0.0 mm 95 W/m2
11:54 10.7 °C 5.8 °C 1025.1 hPa SE 0.4 km/h 7.9 km/h 71.4% 0.0 mm 114 W/m2
11:59 10.7 °C 5.7 °C 1024.7 hPa NE 0.8 km/h 7.9 km/h 71.2% 0.0 mm 149 W/m2
12:04 10.6 °C 5.9 °C 1024.7 hPa SE 0.7 km/h 7.9 km/h 72.7% 0.0 mm 168 W/m2
12:09 10.4 °C 5.8 °C 1024.7 hPa ESE 2.3 km/h 7.9 km/h 72.9% 0.0 mm 176 W/m2
12:14 10 °C 5.4 °C 1024.4 hPa NE 2.7 km/h 12.2 km/h 72.7% 0.0 mm 183 W/m2
12:19 9.9 °C 5.6 °C 1024.7 hPa NNE 0.4 km/h 12.2 km/h 74.3% 0.0 mm 187 W/m2
12:24 9.9 °C 5.3 °C 1024.4 hPa North 0.2 km/h 7.9 km/h 73.2% 0.0 mm 200 W/m2
12:27 9.8 °C 5.3 °C 1024.4 hPa North 1.7 km/h 7.9 km/h 73.8% 0.0 mm 206 W/m2
12:34 9.7 °C 5.2 °C 1024.0 hPa East 0.3 km/h 7.9 km/h 73.7% 0.0 mm 222 W/m2
12:39 9.7 °C 5.1 °C 1024.0 hPa NNE 1.2 km/h 7.9 km/h 73.1% 0.0 mm 232 W/m2
12:44 9.7 °C 5.2 °C 1024.0 hPa NE 0.9 km/h 7.9 km/h 73.4% 0.0 mm 241 W/m2
12:49 9.8 °C 5 °C 1024.0 hPa East 0.1 km/h 4 km/h 72.2% 0.0 mm 254 W/m2
12:54 10.4 °C 5.6 °C 1024.0 hPa ESE 0.8 km/h 7.9 km/h 71.9% 0.0 mm 264 W/m2
12:59 10.4 °C 5.8 °C 1024.0 hPa NNW 0.6 km/h 7.9 km/h 72.9% 0.0 mm 269 W/m2
13:04 10.3 °C 5.6 °C 1023.7 hPa Calm     72.6% 0.0 mm 275 W/m2
13:09 10.3 °C 5.5 °C 1023.4 hPa Calm     71.9% 0.0 mm 281 W/m2
13:14 10.6 °C 5.9 °C 1023.7 hPa NE 1.1 km/h 7.9 km/h 72.3% 0.0 mm 285 W/m2
13:19 10.6 °C 6 °C 1023.7 hPa Calm   7.9 km/h 72.9% 0.0 mm 288 W/m2
13:24 10.6 °C 5.6 °C 1023.4 hPa NNE 0.3 km/h 4 km/h 70.9% 0.0 mm 294 W/m2
13:29 10.6 °C 5.7 °C 1023.4 hPa ENE 0.6 km/h 7.9 km/h 71.7% 0.0 mm 295 W/m2
13:34 10.4 °C 5.7 °C 1023.4 hPa NNE 0.2 km/h 4 km/h 72.4% 0.0 mm 294 W/m2
13:39 10.4 °C 5.6 °C 1023.0 hPa North 1.1 km/h 7.9 km/h 72% 0.0 mm 293 W/m2
13:44 10.4 °C 5.6 °C 1023.4 hPa ENE 0.6 km/h 7.9 km/h 72.1% 0.0 mm 295 W/m2
13:49 10.4 °C 5.5 °C 1023.0 hPa Calm   4 km/h 71.6% 0.0 mm 293 W/m2
13:54 10.7 °C 5.7 °C 1023.0 hPa Calm   4 km/h 70.9% 0.0 mm 294 W/m2
13:59 10.8 °C 5.6 °C 1023.0 hPa SE 0.2 km/h 7.9 km/h 70.1% 0.0 mm 294 W/m2
14:04 10.9 °C 5.7 °C 1023.0 hPa Calm   4 km/h 70.7% 0.0 mm 291 W/m2
14:09 11 °C 5.7 °C 1022.7 hPa Calm   4 km/h 69.9% 0.0 mm 291 W/m2
14:14 11.3 °C 6 °C 1022.7 hPa Calm   4 km/h 69.7% 0.0 mm 285 W/m2
14:19 11.3 °C 6.3 °C 1022.7 hPa ENE 1.6 km/h 7.9 km/h 71.6% 0.0 mm 278 W/m2
14:24 11.2 °C 6.1 °C 1022.7 hPa ESE 0.4 km/h 4 km/h 71.1% 0.0 mm 274 W/m2
14:29 11.2 °C 6 °C 1022.7 hPa SE 0.6 km/h 7.9 km/h 70.7% 0.0 mm 272 W/m2
14:34 11.3 °C 6 °C 1022.7 hPa Calm   4 km/h 70% 0.0 mm 271 W/m2
14:39 11.4 °C 6.2 °C 1022.7 hPa SE 1.3 km/h 7.9 km/h 70.4% 0.0 mm 265 W/m2
14:44 11.4 °C 6.1 °C 1022.4 hPa SE 0.8 km/h 4 km/h 70% 0.0 mm 257 W/m2
14:49 11.4 °C 6.2 °C 1022.7 hPa ESE 1.6 km/h 7.9 km/h 70.9% 0.0 mm 253 W/m2
14:54 11 °C 5.9 °C 1022.4 hPa Calm     71% 0.0 mm 247 W/m2
14:59 11 °C 6 °C 1022.4 hPa Calm     71.7% 0.0 mm 244 W/m2
15:04 10.9 °C 5.9 °C 1022.4 hPa Calm   4 km/h 71.4% 0.0 mm 236 W/m2
15:09 10.9 °C 5.9 °C 1022.4 hPa ENE 0.5 km/h 7.9 km/h 71.5% 0.0 mm 227 W/m2
15:14 10.4 °C 5.7 °C 1022.4 hPa Calm     72.7% 0.0 mm 216 W/m2
15:17 10.4 °C 5.6 °C 1022.4 hPa Calm     72% 0.0 mm 210 W/m2
15:24 10.5 °C 5.5 °C 1022.4 hPa Calm     71% 0.0 mm 202 W/m2
15:29 10.6 °C 5.7 °C 1022.4 hPa Calm     71.5% 0.0 mm 196 W/m2
15:34 10.7 °C 6 °C 1022.4 hPa Calm     72.5% 0.0 mm 120 W/m2
15:39 10.7 °C 6.1 °C 1022.4 hPa Calm     73% 0.0 mm 95 W/m2
15:44 10.6 °C 6.1 °C 1022.4 hPa Calm     73.8% 0.0 mm 50 W/m2
15:48 10.4 °C 6.2 °C 1022.0 hPa Calm     75% 0.0 mm 46 W/m2
15:54 9.7 °C 5.7 °C 1022.4 hPa Calm     75.8% 0.0 mm 44 W/m2
15:59 9.4 °C 5.4 °C 1022.4 hPa Calm     76.1% 0.0 mm 41 W/m2
16:04 9.4 °C 5.6 °C 1022.4 hPa Calm     77.1% 0.0 mm 37 W/m2
16:09 9.3 °C 5.7 °C 1022.4 hPa Calm     78% 0.0 mm 34 W/m2
16:14 8.8 °C 5.2 °C 1022.4 hPa Calm     78.2% 0.0 mm 31 W/m2
16:19 8.6 °C 5.2 °C 1022.4 hPa Calm     79% 0.0 mm 28 W/m2
16:24 8.6 °C 5.3 °C 1022.4 hPa Calm     79.7% 0.0 mm 25 W/m2
16:29 8.5 °C 5.2 °C 1022.4 hPa Calm     79.1% 0.0 mm 23 W/m2
16:34 8.4 °C 5.1 °C 1022.0 hPa Calm     79.7% 0.0 mm 20 W/m2
16:39 8.2 °C 5 °C 1022.4 hPa Calm     80% 0.0 mm 17 W/m2
16:44 8.2 °C 5 °C 1022.4 hPa Calm     80% 0.0 mm 13 W/m2
16:49 8.1 °C 4.8 °C 1022.4 hPa Calm     79.7% 0.0 mm 10 W/m2
16:53 8.1 °C 4.8 °C 1022.4 hPa Calm     79.6% 0.0 mm 7 W/m2
17:04 8 °C 4.9 °C 1022.4 hPa Calm     81% 0.0 mm 3 W/m2
17:09 8 °C 5 °C 1022.4 hPa Calm     81.4% 0.0 mm 0 W/m2
17:14 7.5 °C 4.6 °C 1022.4 hPa Calm     82% 0.0 mm 0 W/m2
17:19 7.2 °C 4.4 °C 1022.4 hPa Calm     82.3% 0.0 mm 0 W/m2
17:24 7.3 °C 4.5 °C 1022.4 hPa Calm     82.3% 0.0 mm 0 W/m2
17:29 7.2 °C 4.5 °C 1022.4 hPa Calm     83% 0.0 mm 0 W/m2
17:34 7.2 °C 4.5 °C 1022.4 hPa Calm     83% 0.0 mm 0 W/m2
17:39 7.2 °C 4.5 °C 1022.4 hPa Calm     83% 0.0 mm 0 W/m2
17:44 7.2 °C 4.5 °C 1022.4 hPa Calm     83% 0.0 mm 0 W/m2
17:49 7.2 °C 4.5 °C 1022.4 hPa Calm     82.9% 0.0 mm 0 W/m2
17:54 7.3 °C 4.4 °C 1022.4 hPa Calm     82.3% 0.0 mm 0 W/m2
17:59 7.3 °C 4.4 °C 1022.4 hPa Calm     82% 0.0 mm 0 W/m2
18:04 7.3 °C 4.4 °C 1022.4 hPa Calm     82% 0.0 mm 0 W/m2
18:09 7.3 °C 4.4 °C 1022.7 hPa Calm     82% 0.0 mm 0 W/m2
18:14 7.3 °C 4.6 °C 1022.7 hPa Calm     82.7% 0.0 mm 0 W/m2
18:19 7.4 °C 4.5 °C 1022.7 hPa Calm     82% 0.0 mm 0 W/m2
18:24 7.4 °C 4.5 °C 1022.7 hPa Calm     82% 0.0 mm 0 W/m2
18:29 7.4 °C 4.5 °C 1022.7 hPa Calm     82.1% 0.0 mm 0 W/m2
18:34 7.4 °C 4.7 °C 1022.7 hPa Calm     83% 0.0 mm 0 W/m2
18:39 7.3 °C 4.7 °C 1023.0 hPa Calm     83% 0.0 mm 0 W/m2
18:44 7.3 °C 4.6 °C 1023.0 hPa Calm     83% 0.0 mm 0 W/m2
18:49 7.3 °C 4.6 °C 1023.0 hPa Calm     82.9% 0.0 mm 0 W/m2
18:54 7.3 °C 4.5 °C 1023.0 hPa Calm     82.2% 0.0 mm 0 W/m2
18:59 7.4 °C 4.5 °C 1023.0 hPa Calm     82% 0.0 mm 0 W/m2
19:04 7.4 °C 4.5 °C 1023.0 hPa Calm     82% 0.0 mm 0 W/m2
19:09 7.4 °C 4.5 °C 1023.0 hPa Calm     82% 0.0 mm 0 W/m2
19:14 7.4 °C 4.6 °C 1023.4 hPa Calm     82.4% 0.0 mm 0 W/m2
19:19 7.4 °C 4.7 °C 1023.4 hPa Calm     82.8% 0.0 mm 0 W/m2
19:24 7.4 °C 4.5 °C 1023.4 hPa Calm     82.2% 0.0 mm 0 W/m2
19:29 7.4 °C 4.7 °C 1023.4 hPa Calm     83% 0.0 mm 0 W/m2
19:34 7.3 °C 4.6 °C 1023.4 hPa Calm     83% 0.0 mm 0 W/m2
19:39 7 °C 4.5 °C 1023.4 hPa Calm     83.9% 0.0 mm 0 W/m2
19:44 7 °C 4.5 °C 1023.4 hPa Calm     84% 0.0 mm 0 W/m2
19:49 7.1 °C 4.3 °C 1023.0 hPa Calm     82.7% 0.0 mm 0 W/m2
19:54 7.2 °C 4.3 °C 1023.4 hPa Calm     82% 0.0 mm 0 W/m2
19:59 7.3 °C 4.4 °C 1023.4 hPa Calm     82% 0.0 mm 0 W/m2
20:04 7.3 °C 4.4 °C 1023.4 hPa Calm     81.6% 0.0 mm 0 W/m2
20:09 7.4 °C 4.4 °C 1023.4 hPa Calm     81.2% 0.0 mm 0 W/m2
20:14 7.3 °C 4.4 °C 1023.4 hPa SSW 0.4 km/h 4 km/h 81.7% 0.0 mm 0 W/m2
20:19 6.9 °C 4.2 °C 1023.4 hPa SSW 0.5 km/h 4 km/h 82.8% 0.0 mm 0 W/m2
20:24 6.9 °C 4.2 °C 1023.4 hPa SW 0.2 km/h 4 km/h 82.8% 0.0 mm 0 W/m2
20:29 7 °C 4.2 °C 1023.4 hPa Calm     82.4% 0.0 mm 0 W/m2
20:34 7 °C 4.1 °C 1023.4 hPa Calm     82% 0.0 mm 0 W/m2
20:39 6.8 °C 3.9 °C 1023.4 hPa Calm     82% 0.0 mm 0 W/m2
20:44 6.8 °C 3.9 °C 1023.4 hPa Calm     81.7% 0.0 mm 0 W/m2
20:49 6.9 °C 4 °C 1023.4 hPa Calm     81.9% 0.0 mm 0 W/m2
20:54 6.9 °C 4.3 °C 1023.4 hPa Calm     83.1% 0.0 mm 0 W/m2
20:59 7 °C 4.2 °C 1023.4 hPa Calm     82.6% 0.0 mm 0 W/m2
21:04 7 °C 4.2 °C 1023.7 hPa Calm     82.3% 0.0 mm 0 W/m2
21:09 6.9 °C 4.5 °C 1023.7 hPa Calm     84.6% 0.0 mm 0 W/m2
21:14 6.8 °C 4.3 °C 1024.0 hPa Calm     84% 0.0 mm 0 W/m2
21:19 6.5 °C 3.8 °C 1024.0 hPa Calm     83% 0.0 mm 0 W/m2
21:24 6.5 °C 3.8 °C 1024.0 hPa Calm     83.1% 0.0 mm 0 W/m2
21:29 6.5 °C 4.1 °C 1024.0 hPa Calm     84.3% 0.0 mm 0 W/m2
21:34 6.3 °C 4.1 °C 1024.0 hPa Calm     85.7% 0.0 mm 0 W/m2
21:39 5.7 °C 3.5 °C 1024.0 hPa Calm     86% 0.0 mm 0 W/m2
21:44 5.7 °C 3.5 °C 1024.0 hPa Calm     86% 0.0 mm 0 W/m2
21:49 5.7 °C 3.4 °C 1023.7 hPa Calm     85.5% 0.0 mm 0 W/m2
21:54 5.7 °C 3.4 °C 1024.0 hPa Calm     84.8% 0.0 mm 0 W/m2
21:59 6.2 °C 3.7 °C 1024.0 hPa Calm     84% 0.0 mm 0 W/m2
22:04 6.2 °C 3.4 °C 1024.4 hPa Calm     82.1% 0.0 mm 0 W/m2
22:09 6.2 °C 3.4 °C 1024.4 hPa Calm     81.8% 0.0 mm 0 W/m2
22:14 6.1 °C 3.1 °C 1024.0 hPa Calm     81% 0.0 mm 0 W/m2
22:19 6 °C 2.9 °C 1024.4 hPa Calm     80.4% 0.0 mm 0 W/m2
22:24 6 °C 2.9 °C 1024.4 hPa Calm     80.6% 0.0 mm 0 W/m2
22:29 5.9 °C 2.9 °C 1024.4 hPa Calm     81.1% 0.0 mm 0 W/m2
22:34 5.9 °C 3.1 °C 1024.4 hPa Calm     82% 0.0 mm 0 W/m2
22:39 5.7 °C 2.9 °C 1024.4 hPa Calm     81.7% 0.0 mm 0 W/m2
22:44 5.7 °C 2.6 °C 1024.4 hPa Calm     80.6% 0.0 mm 0 W/m2
22:49 5.7 °C 2.5 °C 1024.0 hPa Calm     80% 0.0 mm 0 W/m2
22:54 5.7 °C 2.2 °C 1024.0 hPa Calm     78% 0.0 mm 0 W/m2
22:59 6 °C 2.2 °C 1024.0 hPa Calm     76.6% 0.0 mm 0 W/m2
23:04 6 °C 1.9 °C 1024.0 hPa Calm     75% 0.0 mm 0 W/m2
23:09 6 °C 1.8 °C 1024.0 hPa Calm     74.3% 0.0 mm 0 W/m2
23:14 6.1 °C 2.1 °C 1024.0 hPa Calm     75.7% 0.0 mm 0 W/m2
23:19 5.8 °C 2.1 °C 1024.0 hPa Calm     77.1% 0.0 mm 0 W/m2
23:24 5.7 °C 2 °C 1024.4 hPa Calm     77% 0.0 mm 0 W/m2
23:29 5.7 °C 1.8 °C 1024.0 hPa Calm     75.9% 0.0 mm 0 W/m2
23:34 5.8 °C 1.7 °C 1024.4 hPa Calm     75% 0.0 mm 0 W/m2
23:39 6.1 °C 2.1 °C 1024.4 hPa Calm     75.6% 0.0 mm 0 W/m2
23:44 6.1 °C 2.2 °C 1024.0 hPa Calm     76% 0.0 mm 0 W/m2
23:49 6.1 °C 2.2 °C 1024.4 hPa Calm     75.8% 0.0 mm 0 W/m2
23:54 6.2 °C 2.3 °C 1024.4 hPa Calm     76.1% 0.0 mm 0 W/m2
23:59 6.4 °C 2.9 °C 1024.0 hPa Calm     78.8% 0.0 mm 0 W/m2
Juneau County Weather
Compliments of Weather Underground - 2 mb